createdAt,value
2018-02-24T00:01:33.019Z,54.60
2018-02-24T00:04:01.727Z,55.40
2018-02-24T00:06:29.390Z,54.90
2018-02-24T00:08:57.439Z,54.90
2018-02-24T00:11:25.818Z,55.20
2018-02-24T00:13:54.413Z,55.30
2018-02-24T00:16:22.061Z,55.30
2018-02-24T00:18:49.857Z,55.30
2018-02-24T00:21:17.743Z,55.30
2018-02-24T00:23:45.385Z,55.20
2018-02-24T00:26:14.505Z,55.30
2018-02-24T00:28:43.911Z,55.20
2018-02-24T00:31:11.558Z,55.20
2018-02-24T00:33:39.319Z,55.30
2018-02-24T00:36:07.398Z,55.40
2018-02-24T00:38:35.113Z,55.40
2018-02-24T00:41:03.880Z,55.40
2018-02-24T00:43:32.248Z,56.30
2018-02-24T00:45:59.894Z,55.60
2018-02-24T00:48:27.699Z,55.20
2018-02-24T00:50:56.162Z,56.00
2018-02-24T00:53:25.154Z,56.80
2018-02-24T00:55:52.799Z,56.00
2018-02-24T00:58:23.292Z,56.20
2018-02-24T01:00:51.678Z,56.00
2018-02-24T01:03:19.336Z,56.20
2018-02-24T01:05:46.954Z,56.20
2018-02-24T01:08:18.627Z,56.00
2018-02-24T01:10:46.300Z,55.90
2018-02-24T01:13:13.955Z,55.90
2018-02-24T01:15:41.657Z,56.10
2018-02-24T01:18:09.306Z,56.00
2018-02-24T01:20:36.946Z,55.90
2018-02-24T01:23:04.605Z,56.70
2018-02-24T01:25:32.232Z,56.30
2018-02-24T01:28:00.638Z,56.30
2018-02-24T01:30:28.315Z,56.30
2018-02-24T01:32:55.975Z,56.10
2018-02-24T01:35:23.593Z,56.10
2018-02-24T01:37:52.020Z,55.60
2018-02-24T01:40:19.639Z,55.50
2018-02-24T01:42:48.126Z,55.20
2018-02-24T01:45:15.814Z,55.20
2018-02-24T01:47:43.431Z,54.90
2018-02-24T01:50:11.821Z,54.70
2018-02-24T01:52:39.500Z,54.70
2018-02-24T01:55:07.169Z,54.00
2018-02-24T01:57:34.766Z,53.50
2018-02-24T02:00:03.156Z,52.90
2018-02-24T02:02:31.530Z,52.80
2018-02-24T02:04:59.141Z,52.80
2018-02-24T02:07:26.828Z,52.70
2018-02-24T02:09:54.445Z,52.80
2018-02-24T02:12:22.068Z,52.70
2018-02-24T02:14:50.568Z,52.70
2018-02-24T02:17:19.082Z,52.80
2018-02-24T02:19:46.685Z,52.80
2018-02-24T02:22:14.342Z,53.10
2018-02-24T02:24:42.071Z,53.20
2018-02-24T02:27:09.664Z,53.40
2018-02-24T02:29:37.263Z,53.80
2018-02-24T02:32:04.908Z,54.00
2018-02-24T02:34:33.285Z,54.30
2018-02-24T02:37:01.669Z,54.40
2018-02-24T02:39:30.100Z,54.40
2018-02-24T02:41:57.714Z,54.40
2018-02-24T02:44:26.085Z,53.80
2018-02-24T02:46:54.513Z,53.60
2018-02-24T02:49:22.138Z,53.60
2018-02-24T02:51:49.757Z,53.40
2018-02-24T02:54:17.400Z,53.40
2018-02-24T02:56:45.011Z,53.20
2018-02-24T02:59:13.387Z,53.20
2018-02-24T03:01:41.780Z,53.10
2018-02-24T03:04:09.385Z,53.10
2018-02-24T03:06:37.039Z,53.00
2018-02-24T03:09:04.630Z,53.00
2018-02-24T03:11:33.000Z,53.20
2018-02-24T03:14:00.673Z,53.20
2018-02-24T03:16:29.042Z,53.20
2018-02-24T03:18:56.674Z,53.20
2018-02-24T03:21:24.302Z,53.40
2018-02-24T03:23:51.905Z,53.40
2018-02-24T03:26:19.499Z,53.80
2018-02-24T03:28:47.966Z,54.80
2018-02-24T03:31:15.574Z,54.80
2018-02-24T03:33:43.191Z,54.80
2018-02-24T03:36:11.596Z,55.30
2018-02-24T03:38:39.230Z,55.30
2018-02-24T03:41:07.655Z,55.40
2018-02-24T03:43:35.307Z,55.40
2018-02-24T03:46:05.470Z,55.50
2018-02-24T03:48:33.111Z,55.50
2018-02-24T03:51:00.727Z,55.70
2018-02-24T03:53:28.323Z,55.90
2018-02-24T03:55:56.074Z,56.20
2018-02-24T03:58:23.678Z,56.50
2018-02-24T04:00:51.285Z,56.90
2018-02-24T04:03:18.958Z,57.00
2018-02-24T04:05:46.567Z,57.30
2018-02-24T04:08:14.196Z,57.20
2018-02-24T04:10:41.815Z,57.60
2018-02-24T04:13:09.430Z,57.60
2018-02-24T04:15:37.041Z,57.80
2018-02-24T04:18:04.667Z,57.90
2018-02-24T04:20:33.042Z,58.20
2018-02-24T04:23:00.671Z,58.10
2018-02-24T04:25:28.314Z,57.80
2018-02-24T04:27:55.958Z,58.40
2018-02-24T04:30:23.589Z,58.60
2018-02-24T04:32:51.998Z,59.20
2018-02-24T04:35:19.661Z,58.90
2018-02-24T04:37:47.319Z,58.90
2018-02-24T04:40:14.922Z,59.00
2018-02-24T04:42:42.569Z,59.10
2018-02-24T04:45:10.210Z,59.30
2018-02-24T04:47:38.690Z,59.40
2018-02-24T04:50:06.430Z,59.60
2018-02-24T04:52:34.993Z,60.20
2018-02-24T04:55:03.381Z,60.50
2018-02-24T04:57:31.831Z,60.70
2018-02-24T04:59:59.434Z,60.70
2018-02-24T05:02:27.802Z,61.00
2018-02-24T05:04:56.220Z,61.30
2018-02-24T05:07:23.822Z,61.30
2018-02-24T05:09:51.440Z,61.50
2018-02-24T05:12:19.084Z,61.70
2018-02-24T05:14:46.703Z,61.70
2018-02-24T05:17:14.333Z,61.80
2018-02-24T05:19:42.780Z,62.20
2018-02-24T05:22:10.912Z,62.40
2018-02-24T05:24:39.873Z,62.80
2018-02-24T05:27:07.746Z,62.60
2018-02-24T05:29:35.791Z,62.70
2018-02-24T05:32:03.406Z,62.70
2018-02-24T05:34:31.828Z,62.40
2018-02-24T05:36:59.552Z,62.40
2018-02-24T05:39:27.929Z,62.40
2018-02-24T05:41:56.379Z,62.40
2018-02-24T05:44:24.030Z,62.40
2018-02-24T05:46:51.621Z,62.50
2018-02-24T05:49:19.267Z,62.50
2018-02-24T05:51:46.909Z,62.60
2018-02-24T05:54:14.509Z,62.80
2018-02-24T05:56:42.913Z,62.70
2018-02-24T05:59:10.734Z,62.70
2018-02-24T06:01:38.368Z,62.80
2018-02-24T06:04:05.977Z,62.90
2018-02-24T06:06:34.408Z,62.80
2018-02-24T06:09:02.065Z,62.80
2018-02-24T06:11:29.974Z,63.10
2018-02-24T06:13:58.385Z,62.30
2018-02-24T06:16:26.027Z,62.30
2018-02-24T06:18:54.430Z,61.20
2018-02-24T06:21:22.262Z,61.20
2018-02-24T06:23:50.655Z,61.50
2018-02-24T06:26:18.280Z,61.40
2018-02-24T06:28:47.461Z,61.40
2018-02-24T06:31:15.094Z,61.40
2018-02-24T06:33:42.742Z,61.10
2018-02-24T06:36:10.395Z,61.10
2018-02-24T06:38:38.033Z,61.10
2018-02-24T06:41:06.449Z,61.10
2018-02-24T06:43:34.083Z,61.00
2018-02-24T06:46:02.455Z,61.10
2018-02-24T06:48:30.859Z,61.10
2018-02-24T06:50:58.459Z,61.10
2018-02-24T06:53:26.059Z,60.90
2018-02-24T06:55:54.483Z,59.50
2018-02-24T06:58:22.090Z,59.50
2018-02-24T07:00:49.780Z,58.80
2018-02-24T07:03:17.398Z,57.80
2018-02-24T07:05:44.996Z,56.90
2018-02-24T07:08:12.645Z,56.10
2018-02-24T07:10:41.015Z,53.70
2018-02-24T07:13:09.436Z,52.40
2018-02-24T07:15:37.082Z,52.40
2018-02-24T07:18:05.408Z,51.70
2018-02-24T07:20:33.031Z,51.20
2018-02-24T07:23:01.275Z,50.20
2018-02-24T07:25:29.549Z,50.10
2018-02-24T07:27:57.933Z,49.50
2018-02-24T07:30:26.302Z,49.40
2018-02-24T07:32:54.768Z,49.00
2018-02-24T07:35:22.389Z,49.00
2018-02-24T07:37:50.020Z,49.30
2018-02-24T07:40:17.673Z,48.70
2018-02-24T07:42:45.279Z,47.90
2018-02-24T07:45:12.901Z,47.70
2018-02-24T07:47:40.554Z,47.70
2018-02-24T07:50:08.158Z,46.00
2018-02-24T07:52:35.830Z,45.60
2018-02-24T07:55:03.483Z,44.90
2018-02-24T07:57:31.135Z,44.70
2018-02-24T07:59:58.789Z,44.50
2018-02-24T08:02:26.434Z,43.20
2018-02-24T08:04:54.039Z,43.10
2018-02-24T08:07:21.673Z,42.30
2018-02-24T08:09:49.336Z,41.20
2018-02-24T08:12:16.943Z,41.40
2018-02-24T08:14:46.176Z,39.90
2018-02-24T08:17:13.829Z,39.90
2018-02-24T08:19:41.802Z,39.30
2018-02-24T08:22:10.204Z,39.20
2018-02-24T08:24:37.901Z,38.90
2018-02-24T08:27:06.386Z,38.60
2018-02-24T08:29:38.817Z,38.40
2018-02-24T08:32:16.097Z,38.00
2018-02-24T08:34:43.818Z,37.30
2018-02-24T08:37:11.725Z,36.00
2018-02-24T08:39:39.365Z,36.30
2018-02-24T08:42:07.029Z,36.00
2018-02-24T08:44:34.721Z,35.90
2018-02-24T08:47:03.325Z,35.10
2018-02-24T08:49:31.010Z,35.20
2018-02-24T08:51:59.364Z,35.30
2018-02-24T08:54:27.020Z,35.40
2018-02-24T08:56:54.642Z,34.50
2018-02-24T08:59:22.323Z,33.80
2018-02-24T09:01:49.968Z,34.10
2018-02-24T09:04:17.570Z,34.50
2018-02-24T09:06:47.283Z,34.50
2018-02-24T09:09:15.840Z,35.20
2018-02-24T09:14:19.042Z,34.40
2018-02-24T09:17:24.216Z,34.80
2018-02-24T09:19:52.850Z,35.90
2018-02-24T09:22:24.273Z,34.90
2018-02-24T09:24:55.580Z,35.20
2018-02-24T09:27:37.109Z,33.90
2018-02-24T09:30:06.341Z,34.20
2018-02-24T09:32:33.958Z,33.20
2018-02-24T09:35:01.619Z,33.20
2018-02-24T09:37:29.275Z,33.20
2018-02-24T09:39:57.665Z,32.90
2018-02-24T09:42:25.317Z,32.90
2018-02-24T09:44:53.690Z,33.10
2018-02-24T09:47:22.159Z,33.10
2018-02-24T09:49:50.554Z,32.00
2018-02-24T09:52:18.925Z,31.40
2018-02-24T09:54:47.288Z,31.30
2018-02-24T09:57:14.943Z,31.40
2018-02-24T09:59:42.558Z,31.50
2018-02-24T10:02:10.232Z,30.80
2018-02-24T10:04:37.878Z,31.00
2018-02-24T10:07:05.519Z,30.80
2018-02-24T10:09:33.120Z,30.20
2018-02-24T10:12:00.753Z,30.70
2018-02-24T10:14:28.372Z,31.10
2018-02-24T10:16:56.019Z,31.20
2018-02-24T10:19:23.650Z,32.20
2018-02-24T10:21:51.359Z,32.80
2018-02-24T10:24:19.038Z,33.80
2018-02-24T10:26:47.991Z,33.60
2018-02-24T10:29:15.680Z,33.50
2018-02-24T10:31:46.089Z,33.50
2018-02-24T10:34:13.764Z,33.50
2018-02-24T10:36:43.677Z,34.40
2018-02-24T10:39:16.092Z,34.30
2018-02-24T10:41:45.091Z,34.20
2018-02-24T10:46:48.154Z,32.90
2018-02-24T10:49:16.540Z,32.90
2018-02-24T10:51:44.930Z,32.40
2018-02-24T10:54:13.125Z,32.40
2018-02-24T10:56:40.770Z,32.20
2018-02-24T10:59:08.358Z,31.70
2018-02-24T11:01:36.211Z,31.70
2018-02-24T11:04:04.183Z,31.70
2018-02-24T11:06:31.803Z,31.30
2018-02-24T11:09:02.131Z,31.70
2018-02-24T11:11:30.223Z,31.70
2018-02-24T11:13:57.846Z,31.70
2018-02-24T11:16:26.283Z,32.30
2018-02-24T11:18:53.885Z,31.70
2018-02-24T11:21:22.493Z,31.10
2018-02-24T11:23:50.145Z,31.00
2018-02-24T11:26:17.809Z,30.90
2018-02-24T11:28:45.451Z,31.20
2018-02-24T11:31:13.897Z,29.90
2018-02-24T11:33:41.543Z,29.90
2018-02-24T11:36:09.212Z,29.60
2018-02-24T11:38:36.874Z,29.20
2018-02-24T11:41:04.511Z,28.50
2018-02-24T11:43:32.186Z,28.30
2018-02-24T11:45:59.824Z,28.60
2018-02-24T11:48:27.413Z,28.20
2018-02-24T11:50:56.042Z,28.40
2018-02-24T11:53:23.652Z,28.60
2018-02-24T11:55:51.269Z,28.70
2018-02-24T11:58:18.914Z,28.40
2018-02-24T12:00:47.357Z,28.60
2018-02-24T12:03:14.998Z,28.60
2018-02-24T12:05:43.496Z,28.10
2018-02-24T12:08:11.114Z,28.30
2018-02-24T12:10:39.070Z,28.40
2018-02-24T12:13:06.799Z,27.90
2018-02-24T12:15:34.438Z,28.10
2018-02-24T12:18:02.058Z,28.00
2018-02-24T12:20:30.451Z,28.70
2018-02-24T12:22:58.093Z,28.70
2018-02-24T12:25:27.095Z,28.60
2018-02-24T12:27:54.696Z,28.60
2018-02-24T12:30:22.374Z,29.10
2018-02-24T12:32:49.967Z,28.20
2018-02-24T12:35:18.320Z,28.10
2018-02-24T12:37:45.957Z,28.10
2018-02-24T12:40:13.590Z,28.60
2018-02-24T12:42:42.244Z,28.70
2018-02-24T12:45:10.783Z,28.00
2018-02-24T12:47:38.385Z,28.00
2018-02-24T12:50:06.799Z,27.90
2018-02-24T12:52:34.387Z,27.90
2018-02-24T12:55:02.009Z,28.40
2018-02-24T12:57:29.615Z,28.40
2018-02-24T12:59:57.991Z,28.60
2018-02-24T13:02:27.108Z,28.80
2018-02-24T13:04:55.464Z,29.00
2018-02-24T13:07:23.174Z,29.00
2018-02-24T13:09:50.770Z,29.10
2018-02-24T13:12:18.355Z,29.20
2018-02-24T13:14:45.986Z,29.00
2018-02-24T13:17:13.578Z,29.10
2018-02-24T13:19:41.159Z,28.90
2018-02-24T13:22:09.563Z,27.90
2018-02-24T13:24:37.166Z,27.80
2018-02-24T13:27:04.803Z,28.00
2018-02-24T13:29:33.861Z,27.60
2018-02-24T13:32:01.855Z,26.60
2018-02-24T13:34:30.993Z,25.80
2018-02-24T13:36:58.629Z,26.30
2018-02-24T13:39:26.215Z,25.40
2018-02-24T13:41:53.806Z,26.10
2018-02-24T13:44:21.415Z,26.80
2018-02-24T13:46:49.158Z,26.80
2018-02-24T13:52:17.918Z,26.90
2018-02-24T13:54:46.301Z,25.60
2018-02-24T13:57:14.668Z,24.00
2018-02-24T13:59:43.071Z,23.20
2018-02-24T14:02:10.759Z,23.20
2018-02-24T14:04:38.394Z,24.40
2018-02-24T14:07:05.979Z,23.40
2018-02-24T14:09:33.605Z,22.50
2018-02-24T14:12:01.981Z,22.10
2018-02-24T14:14:30.347Z,20.40
2018-02-24T14:16:58.765Z,20.20
2018-02-24T14:19:26.394Z,20.10
2018-02-24T14:21:54.770Z,19.50
2018-02-24T14:24:23.159Z,19.90
2018-02-24T14:26:50.737Z,19.80
2018-02-24T14:29:18.718Z,19.90
2018-02-24T14:31:46.324Z,20.60
2018-02-24T14:34:14.694Z,20.70
2018-02-24T14:36:42.308Z,20.70
2018-02-24T14:39:09.915Z,20.50
2018-02-24T14:41:37.544Z,21.10
2018-02-24T14:44:05.169Z,19.50
2018-02-24T14:46:32.790Z,20.40
2018-02-24T14:49:00.458Z,19.80
2018-02-24T14:51:28.045Z,19.70
2018-02-24T14:53:55.673Z,19.30
2018-02-24T14:56:23.349Z,19.00
2018-02-24T14:58:50.959Z,19.80
2018-02-24T15:01:18.724Z,19.60
2018-02-24T15:03:46.357Z,21.50
2018-02-24T15:06:13.951Z,22.70
2018-02-24T15:08:41.738Z,24.00
2018-02-24T15:11:10.232Z,25.10
2018-02-24T15:13:38.586Z,25.90
2018-02-24T15:16:06.206Z,25.80
2018-02-24T15:18:33.824Z,26.40
2018-02-24T15:21:02.239Z,27.40
2018-02-24T15:23:29.839Z,27.40
2018-02-24T15:25:57.773Z,27.60
2018-02-24T15:28:25.414Z,28.10
2018-02-24T15:30:53.035Z,28.50
2018-02-24T15:33:22.523Z,29.00
2018-02-24T15:35:50.199Z,28.90
2018-02-24T15:38:17.934Z,29.20
2018-02-24T15:40:45.519Z,28.90
2018-02-24T15:43:13.157Z,28.40
2018-02-24T15:45:40.764Z,28.40
2018-02-24T15:48:09.131Z,29.00
2018-02-24T15:50:36.784Z,29.00
2018-02-24T15:53:04.524Z,29.20
2018-02-24T15:55:32.154Z,29.40
2018-02-24T15:57:59.762Z,29.30
2018-02-24T16:00:27.412Z,29.80
2018-02-24T16:02:55.063Z,29.60
2018-02-24T16:05:22.695Z,29.60
2018-02-24T16:07:50.322Z,29.50
2018-02-24T16:10:18.022Z,29.70
2018-02-24T16:12:45.826Z,30.00
2018-02-24T16:15:13.492Z,30.10
2018-02-24T16:17:41.120Z,30.50
2018-02-24T16:20:08.706Z,30.50
2018-02-24T16:22:36.364Z,30.80
2018-02-24T16:25:04.003Z,31.40
2018-02-24T16:27:31.582Z,31.20
2018-02-24T16:29:59.201Z,31.30
2018-02-24T16:32:26.782Z,30.50
2018-02-24T16:34:54.364Z,30.60
2018-02-24T16:37:21.998Z,31.10
2018-02-24T16:39:49.611Z,30.20
2018-02-24T16:44:49.930Z,30.10
2018-02-24T16:47:17.627Z,30.60
2018-02-24T16:49:45.228Z,30.60
2018-02-24T16:52:12.850Z,31.10
2018-02-24T16:54:40.449Z,30.50
2018-02-24T16:57:08.063Z,31.10
2018-02-24T16:59:36.415Z,31.40
2018-02-24T17:02:05.546Z,31.20
2018-02-24T17:04:33.155Z,31.20
2018-02-24T17:07:00.782Z,31.30
2018-02-24T17:09:28.526Z,31.60
2018-02-24T17:11:56.133Z,31.80
2018-02-24T17:14:23.723Z,32.30
2018-02-24T17:16:52.106Z,32.60
2018-02-24T17:19:20.480Z,32.60
2018-02-24T17:21:48.887Z,32.70
2018-02-24T17:24:16.492Z,32.70
2018-02-24T17:26:44.107Z,32.90
2018-02-24T17:29:11.747Z,33.30
2018-02-24T17:31:40.115Z,33.70
2018-02-24T17:34:08.532Z,33.90
2018-02-24T17:36:36.154Z,33.80
2018-02-24T17:39:03.795Z,34.10
2018-02-24T17:41:31.428Z,34.20
2018-02-24T17:43:59.052Z,34.30
2018-02-24T17:46:26.657Z,34.50
2018-02-24T17:48:54.370Z,34.40
2018-02-24T17:51:21.968Z,34.70
2018-02-24T17:53:49.570Z,34.80
2018-02-24T17:56:17.966Z,35.60
2018-02-24T17:58:45.613Z,35.00
2018-02-24T18:01:13.984Z,35.50
2018-02-24T18:03:43.184Z,35.70
2018-02-24T18:06:11.564Z,35.90
2018-02-24T18:08:39.966Z,36.00
2018-02-24T18:11:07.626Z,36.00
2018-02-24T18:13:35.219Z,36.10
2018-02-24T18:16:02.860Z,36.10
2018-02-24T18:18:30.488Z,35.70
2018-02-24T18:20:58.866Z,35.80
2018-02-24T18:23:27.271Z,36.40
2018-02-24T18:25:54.862Z,36.40
2018-02-24T18:28:22.500Z,36.30
2018-02-24T18:30:50.159Z,36.20
2018-02-24T18:33:17.752Z,36.00
2018-02-24T18:35:46.132Z,36.00
2018-02-24T18:38:13.788Z,35.80
2018-02-24T18:40:41.436Z,36.60
2018-02-24T18:43:09.082Z,36.10
2018-02-24T18:45:36.754Z,36.10
2018-02-24T18:48:04.437Z,35.90
2018-02-24T18:50:32.040Z,36.10
2018-02-24T18:52:59.707Z,36.40
2018-02-24T18:55:27.315Z,36.20
2018-02-24T18:57:54.928Z,36.40
2018-02-24T19:00:22.575Z,36.30
2018-02-24T19:02:50.351Z,36.50
2018-02-24T19:05:17.973Z,36.60
2018-02-24T19:07:45.578Z,36.70
2018-02-24T19:10:13.200Z,36.60
2018-02-24T19:12:41.593Z,36.70
2018-02-24T19:15:09.946Z,36.90
2018-02-24T19:17:37.584Z,36.90
2018-02-24T19:20:05.248Z,37.00
2018-02-24T19:22:33.642Z,37.20
2018-02-24T19:25:01.308Z,36.80
2018-02-24T19:27:28.889Z,36.50
2018-02-24T19:29:56.501Z,36.30
2018-02-24T19:32:24.165Z,36.50
2018-02-24T19:34:52.170Z,36.60
2018-02-24T19:37:19.822Z,36.50
2018-02-24T19:39:47.640Z,36.30
2018-02-24T19:42:15.247Z,36.40
2018-02-24T19:44:42.942Z,36.40
2018-02-24T19:47:10.586Z,36.10
2018-02-24T19:49:39.034Z,36.50
2018-02-24T19:52:06.779Z,36.50
2018-02-24T19:54:34.539Z,36.20
2018-02-24T19:57:02.142Z,36.20
2018-02-24T19:59:30.686Z,36.60
2018-02-24T20:01:58.611Z,36.50
2018-02-24T20:04:26.987Z,36.80
2018-02-24T20:06:54.743Z,36.90
2018-02-24T20:09:23.199Z,36.80
2018-02-24T20:11:52.321Z,37.30
2018-02-24T20:14:20.708Z,37.10
2018-02-24T20:16:48.347Z,37.10
2018-02-24T20:19:16.731Z,37.30
2018-02-24T20:21:45.110Z,37.40
2018-02-24T20:24:13.534Z,37.90
2018-02-24T20:26:41.192Z,37.90
2018-02-24T20:29:08.809Z,37.50
2018-02-24T20:31:37.244Z,37.80
2018-02-24T20:34:04.893Z,37.70
2018-02-24T20:36:32.566Z,37.70
2018-02-24T20:39:00.203Z,37.70
2018-02-24T20:41:27.817Z,37.70
2018-02-24T20:43:56.181Z,37.80
2018-02-24T20:46:23.861Z,38.20
2018-02-24T20:48:52.351Z,38.60
2018-02-24T20:51:20.726Z,38.60
2018-02-24T20:53:49.251Z,38.70
2018-02-24T20:56:17.027Z,38.60
2018-02-24T20:58:44.889Z,38.80
2018-02-24T21:01:12.603Z,38.40
2018-02-24T21:03:40.234Z,38.40
2018-02-24T21:06:07.895Z,38.30
2018-02-24T21:08:35.727Z,38.10
2018-02-24T21:11:03.697Z,37.80
2018-02-24T21:13:31.546Z,37.50
2018-02-24T21:15:59.182Z,37.30
2018-02-24T21:18:27.696Z,36.80
2018-02-24T21:20:56.567Z,36.80
2018-02-24T21:23:24.326Z,36.70
2018-02-24T21:25:51.995Z,36.60
2018-02-24T21:28:19.599Z,36.70
2018-02-24T21:30:47.207Z,36.90
2018-02-24T21:33:14.847Z,36.80
2018-02-24T21:35:43.259Z,36.60
2018-02-24T21:38:10.910Z,36.50
2018-02-24T21:40:38.503Z,36.50
2018-02-24T21:43:06.261Z,36.60
2018-02-24T21:45:34.642Z,36.50
2018-02-24T21:48:03.210Z,36.80
2018-02-24T21:50:30.809Z,36.80
2018-02-24T21:52:58.546Z,36.60
2018-02-24T21:55:26.185Z,36.50
2018-02-24T21:57:53.821Z,36.40
2018-02-24T22:00:21.519Z,36.50
2018-02-24T22:02:49.123Z,36.40
2018-02-24T22:05:16.970Z,36.70
2018-02-24T22:07:45.362Z,36.50
2018-02-24T22:10:13.873Z,36.50
2018-02-24T22:12:41.571Z,36.50
2018-02-24T22:15:09.201Z,36.90
2018-02-24T22:17:36.819Z,36.90
2018-02-24T22:20:04.626Z,37.00
2018-02-24T22:22:32.249Z,36.90
2018-02-24T22:25:00.620Z,37.20
2018-02-24T22:27:28.258Z,37.10
2018-02-24T22:29:55.867Z,37.20
2018-02-24T22:32:24.229Z,37.40
2018-02-24T22:34:53.365Z,37.50
2018-02-24T22:37:20.957Z,37.50
2018-02-24T22:39:48.615Z,37.70
2018-02-24T22:42:16.346Z,37.70
2018-02-24T22:44:44.005Z,37.70
2018-02-24T22:47:11.610Z,38.00
2018-02-24T22:49:39.259Z,38.10
2018-02-24T22:52:06.915Z,38.00
2018-02-24T22:54:34.510Z,38.20
2018-02-24T22:57:03.560Z,39.10
2018-02-24T22:59:31.222Z,38.60
2018-02-24T23:01:58.815Z,38.70
2018-02-24T23:04:26.460Z,38.70
2018-02-24T23:06:54.096Z,38.70
2018-02-24T23:09:21.717Z,38.70
2018-02-24T23:11:50.103Z,39.10
2018-02-24T23:14:17.731Z,39.10
2018-02-24T23:16:45.372Z,39.00
2018-02-24T23:19:12.955Z,39.00
2018-02-24T23:21:40.562Z,39.20
2018-02-24T23:24:08.216Z,39.30
2018-02-24T23:26:35.824Z,39.20
2018-02-24T23:29:03.487Z,39.80
2018-02-24T23:31:31.127Z,39.00
2018-02-24T23:33:58.744Z,39.00
2018-02-24T23:36:27.171Z,39.30
2018-02-24T23:38:54.809Z,39.30
2018-02-24T23:41:22.398Z,39.50
2018-02-24T23:43:50.001Z,39.40
2018-02-24T23:46:18.428Z,39.40
2018-02-24T23:48:46.047Z,39.40
2018-02-24T23:51:13.746Z,39.60
2018-02-24T23:53:41.369Z,39.60
2018-02-24T23:56:08.988Z,39.60
2018-02-24T23:58:36.621Z,39.40
